createdAt,value
2022-12-13T00:00:04.430Z,4.73
2022-12-13T00:02:42.544Z,4.30
2022-12-13T00:05:13.759Z,3.50
2022-12-13T00:07:43.982Z,4.50
2022-12-13T00:10:12.840Z,5.00
2022-12-13T00:12:41.739Z,6.20
2022-12-13T00:15:11.664Z,5.50
2022-12-13T00:17:40.683Z,4.57
2022-12-13T00:20:10.279Z,5.10
2022-12-13T00:22:40.810Z,5.50
2022-12-13T00:25:10.027Z,5.27
2022-12-13T00:27:39.723Z,5.60
2022-12-13T00:30:09.401Z,6.07
2022-12-13T00:32:38.289Z,5.90
2022-12-13T00:35:07.778Z,6.40
2022-12-13T00:37:36.702Z,5.50
2022-12-13T00:40:08.440Z,5.30
2022-12-13T00:42:37.523Z,5.93
2022-12-13T00:45:07.064Z,5.20
2022-12-13T00:47:35.937Z,4.80
2022-12-13T00:50:06.029Z,4.90
2022-12-13T00:52:35.879Z,4.17
2022-12-13T00:55:06.771Z,5.30
2022-12-13T00:57:35.857Z,5.00
2022-12-13T01:00:07.255Z,5.17
2022-12-13T01:02:36.138Z,5.10
2022-12-13T01:05:05.276Z,4.87
2022-12-13T01:07:34.006Z,5.63
2022-12-13T01:10:03.028Z,4.80
2022-12-13T01:12:33.150Z,5.43
2022-12-13T01:15:02.300Z,4.90
2022-12-13T01:17:31.746Z,5.40
2022-12-13T01:20:00.614Z,5.80
2022-12-13T01:22:29.771Z,5.10
2022-12-13T01:24:58.674Z,4.77
2022-12-13T01:27:27.566Z,5.40
2022-12-13T01:29:58.371Z,5.17
2022-12-13T01:32:27.177Z,4.77
2022-12-13T01:34:56.146Z,4.50
2022-12-13T01:37:26.045Z,4.67
2022-12-13T01:39:55.115Z,5.17
2022-12-13T01:42:27.527Z,5.00
2022-12-13T01:45:26.208Z,5.40
2022-12-13T01:47:58.674Z,5.10
2022-12-13T01:50:30.546Z,5.10
2022-12-13T01:53:00.820Z,4.43
2022-12-13T01:55:33.169Z,4.90
2022-12-13T01:58:10.435Z,5.10
2022-12-13T02:00:41.099Z,4.83
2022-12-13T02:03:21.315Z,4.70
2022-12-13T02:05:57.489Z,4.40
2022-12-13T02:08:30.344Z,4.23
2022-12-13T02:11:05.712Z,4.80
2022-12-13T02:13:37.016Z,4.13
2022-12-13T02:16:14.128Z,4.47
2022-12-13T02:19:08.718Z,4.23
2022-12-13T02:21:48.943Z,4.67
2022-12-13T02:24:37.015Z,4.03
2022-12-13T02:27:12.061Z,4.57
2022-12-13T02:30:22.431Z,4.83
2022-12-13T02:33:04.739Z,4.07
2022-12-13T02:35:40.846Z,4.17
2022-12-13T02:38:21.476Z,4.13
2022-12-13T02:41:00.731Z,4.57
2022-12-13T02:43:34.195Z,4.20
2022-12-13T02:46:04.589Z,4.07
2022-12-13T02:48:39.299Z,4.23
2022-12-13T02:51:11.874Z,4.73
2022-12-13T02:53:42.038Z,4.43
2022-12-13T02:56:10.554Z,4.10
2022-12-13T02:58:43.398Z,3.97
2022-12-13T03:01:40.903Z,4.63
2022-12-13T03:04:26.099Z,4.17
2022-12-13T03:07:02.025Z,4.63
2022-12-13T03:09:50.477Z,4.20
2022-12-13T03:12:45.337Z,4.40
2022-12-13T03:15:20.039Z,4.20
2022-12-13T03:17:53.023Z,3.93
2022-12-13T03:20:26.308Z,4.37
2022-12-13T03:22:56.083Z,4.53
2022-12-13T03:25:31.230Z,4.17
2022-12-13T03:28:02.889Z,4.23
2022-12-13T03:30:32.672Z,3.77
2022-12-13T03:33:01.989Z,3.97
2022-12-13T03:35:34.907Z,3.90
2022-12-13T03:38:22.614Z,3.67
2022-12-13T03:40:55.382Z,3.83
2022-12-13T03:43:24.797Z,3.70
2022-12-13T03:45:53.778Z,3.90
2022-12-13T03:48:24.078Z,3.77
2022-12-13T03:50:55.808Z,3.80
2022-12-13T03:53:33.663Z,3.70
2022-12-13T03:56:05.631Z,3.70
2022-12-13T03:58:38.113Z,3.80
2022-12-13T04:01:08.886Z,3.90
2022-12-13T04:03:38.872Z,3.73
2022-12-13T04:06:10.248Z,3.50
2022-12-13T04:08:40.306Z,3.63
2022-12-13T04:11:23.549Z,3.30
2022-12-13T04:13:52.964Z,3.10
2022-12-13T04:16:22.619Z,3.40
2022-12-13T04:18:51.704Z,3.80
2022-12-13T04:21:22.060Z,4.00
2022-12-13T04:23:50.764Z,3.83
2022-12-13T04:26:19.522Z,3.53
2022-12-13T04:28:54.189Z,3.93
2022-12-13T04:31:23.789Z,3.57
2022-12-13T04:33:52.706Z,4.10
2022-12-13T04:36:31.001Z,3.30
2022-12-13T04:39:02.127Z,4.13
2022-12-13T04:41:33.928Z,3.80
2022-12-13T04:44:04.767Z,4.10
2022-12-13T04:46:33.466Z,3.77
2022-12-13T04:49:02.555Z,3.80
2022-12-13T04:51:32.779Z,3.70
2022-12-13T04:54:12.943Z,3.37
2022-12-13T04:56:50.626Z,3.40
2022-12-13T04:59:20.527Z,4.17
2022-12-13T05:01:49.308Z,4.47
2022-12-13T05:04:18.470Z,3.80
2022-12-13T05:06:48.675Z,3.90
2022-12-13T05:09:17.519Z,3.73
2022-12-13T05:11:46.330Z,3.97
2022-12-13T05:14:23.411Z,4.40
2022-12-13T05:16:53.499Z,4.40
2022-12-13T05:19:22.417Z,4.20
2022-12-13T05:22:02.150Z,4.00
2022-12-13T05:24:32.130Z,4.13
2022-12-13T05:27:01.357Z,4.20
2022-12-13T05:29:50.350Z,5.20
2022-12-13T05:32:18.936Z,4.20
2022-12-13T05:34:48.624Z,4.33
2022-12-13T05:37:19.329Z,4.50
2022-12-13T05:39:47.954Z,4.50
2022-12-13T05:42:16.793Z,4.17
2022-12-13T05:44:45.342Z,4.77
2022-12-13T05:47:14.146Z,4.67
2022-12-13T05:49:43.029Z,5.50
2022-12-13T05:52:19.298Z,5.70
2022-12-13T05:54:48.438Z,4.63
2022-12-13T05:57:17.246Z,4.60
2022-12-13T05:59:45.929Z,4.50
2022-12-13T06:02:21.143Z,4.90
2022-12-13T06:04:50.546Z,4.97
2022-12-13T06:07:21.121Z,4.73
2022-12-13T06:09:50.036Z,4.57
2022-12-13T06:12:31.785Z,4.40
2022-12-13T06:15:01.729Z,4.63
2022-12-13T06:17:33.156Z,4.30
2022-12-13T06:20:02.236Z,5.17
2022-12-13T06:22:53.634Z,4.97
2022-12-13T06:25:31.345Z,4.93
2022-12-13T06:28:01.326Z,5.47
2022-12-13T06:30:30.803Z,5.50
2022-12-13T06:32:59.584Z,5.57
2022-12-13T06:35:30.404Z,5.20
2022-12-13T06:38:02.107Z,5.10
2022-12-13T06:40:31.502Z,5.57
2022-12-13T06:43:00.899Z,5.13
2022-12-13T06:45:29.742Z,5.10
2022-12-13T06:47:58.714Z,5.03
2022-12-13T06:50:27.241Z,5.23
2022-12-13T06:52:55.981Z,4.87
2022-12-13T06:55:26.180Z,4.17
2022-12-13T06:57:55.032Z,4.00
2022-12-13T07:00:27.223Z,4.67
2022-12-13T07:03:05.706Z,4.53
2022-12-13T07:05:34.938Z,4.80
2022-12-13T07:08:03.816Z,4.30
2022-12-13T07:10:35.074Z,4.27
2022-12-13T07:13:03.731Z,4.23
2022-12-13T07:15:34.994Z,4.67
2022-12-13T07:18:04.045Z,4.07
2022-12-13T07:20:32.968Z,3.93
2022-12-13T07:23:01.820Z,3.60
2022-12-13T07:25:30.499Z,4.77
2022-12-13T07:28:03.746Z,4.43
2022-12-13T07:30:34.209Z,3.80
2022-12-13T07:33:11.491Z,3.73
2022-12-13T07:35:41.130Z,4.67
2022-12-13T07:38:11.923Z,4.47
2022-12-13T07:40:42.057Z,4.23
2022-12-13T07:43:13.402Z,3.87
2022-12-13T07:45:42.037Z,3.87
2022-12-13T07:48:10.922Z,3.73
2022-12-13T07:50:39.477Z,3.30
2022-12-13T07:53:09.684Z,3.50
2022-12-13T07:55:39.220Z,3.97
2022-12-13T07:58:10.258Z,3.63
2022-12-13T08:00:46.435Z,3.60
2022-12-13T08:03:25.379Z,3.93
2022-12-13T08:06:01.778Z,3.50
2022-12-13T08:08:31.818Z,3.43
2022-12-13T08:11:04.702Z,3.57
2022-12-13T08:13:33.449Z,3.10
2022-12-13T08:16:27.207Z,3.13
2022-12-13T08:19:01.782Z,3.87
2022-12-13T08:24:26.872Z,4.07
2022-12-13T08:26:57.464Z,3.97
2022-12-13T08:29:34.567Z,3.40
2022-12-13T08:32:08.065Z,3.47
2022-12-13T08:34:37.138Z,3.83
2022-12-13T08:37:06.402Z,3.53
2022-12-13T08:39:37.847Z,3.30
2022-12-13T08:42:16.076Z,4.13
2022-12-13T08:44:49.155Z,3.23
2022-12-13T08:47:22.875Z,3.43
2022-12-13T08:49:55.276Z,3.23
2022-12-13T08:52:24.654Z,3.60
2022-12-13T08:54:53.170Z,2.93
2022-12-13T08:57:21.989Z,2.93
2022-12-13T08:59:50.518Z,3.30
2022-12-13T09:02:20.758Z,2.83
2022-12-13T09:04:50.080Z,3.90
2022-12-13T09:07:18.552Z,3.70
2022-12-13T09:09:47.065Z,3.70
2022-12-13T09:12:30.017Z,4.00
2022-12-13T09:15:01.613Z,3.90
2022-12-13T09:17:44.480Z,6.93
2022-12-13T09:20:41.311Z,11.73
2022-12-13T09:23:13.930Z,4.40
2022-12-13T09:26:05.228Z,3.90
2022-12-13T09:28:37.158Z,5.07
2022-12-13T09:31:08.838Z,4.10
2022-12-13T09:33:40.994Z,4.20
2022-12-13T09:36:13.939Z,4.40
2022-12-13T09:38:42.969Z,3.87
2022-12-13T09:41:20.457Z,4.20
2022-12-13T09:44:02.012Z,4.37
2022-12-13T09:46:34.733Z,4.60
2022-12-13T09:49:22.635Z,3.83
2022-12-13T09:52:11.723Z,4.00
2022-12-13T09:54:48.721Z,5.10
2022-12-13T09:57:32.796Z,5.27
2022-12-13T10:00:06.012Z,4.37
2022-12-13T10:02:46.470Z,4.20
2022-12-13T10:05:33.868Z,4.53
2022-12-13T10:08:11.438Z,4.60
2022-12-13T10:10:40.265Z,4.53
2022-12-13T10:13:16.309Z,4.17
2022-12-13T10:15:48.823Z,5.17
2022-12-13T10:18:27.199Z,5.13
2022-12-13T10:20:58.751Z,5.67
2022-12-13T10:23:53.101Z,7.97
2022-12-13T10:26:24.373Z,10.47
2022-12-13T10:29:04.333Z,8.63
2022-12-13T10:31:41.830Z,8.43
2022-12-13T10:34:22.042Z,5.80
2022-12-13T10:36:53.062Z,8.80
2022-12-13T10:39:39.490Z,4.20
2022-12-13T10:42:14.597Z,5.10
2022-12-13T10:45:09.408Z,4.50
2022-12-13T10:47:38.101Z,5.40
2022-12-13T10:50:07.387Z,5.50
2022-12-13T10:52:43.939Z,4.53
2022-12-13T10:55:27.338Z,4.60
2022-12-13T10:57:59.461Z,4.67
2022-12-13T11:00:37.733Z,4.40
2022-12-13T11:03:06.880Z,4.97
2022-12-13T11:05:38.227Z,4.53
2022-12-13T11:08:25.243Z,4.90
2022-12-13T11:11:00.143Z,5.30
2022-12-13T11:13:38.565Z,6.70
2022-12-13T11:16:23.447Z,6.67
2022-12-13T11:18:55.425Z,6.07
2022-12-13T11:21:27.802Z,4.90
2022-12-13T11:24:01.917Z,5.83
2022-12-13T11:26:33.211Z,4.43
2022-12-13T11:29:18.767Z,4.90
2022-12-13T11:31:55.519Z,4.67
2022-12-13T11:34:35.990Z,5.40
2022-12-13T11:37:17.887Z,4.67
2022-12-13T11:39:53.606Z,4.80
2022-12-13T11:42:35.668Z,4.60
2022-12-13T11:45:13.492Z,5.03
2022-12-13T11:47:58.137Z,28.40
2022-12-13T11:50:34.136Z,24.37
2022-12-13T11:53:24.332Z,6.23
2022-12-13T11:56:01.104Z,4.50
2022-12-13T12:01:31.446Z,3.97
2022-12-13T12:04:15.942Z,4.70
2022-12-13T12:06:50.248Z,5.57
2022-12-13T12:09:22.302Z,4.70
2022-12-13T12:12:00.670Z,7.97
2022-12-13T12:14:41.249Z,5.20
2022-12-13T12:17:14.843Z,4.40
2022-12-13T12:19:48.065Z,3.97
2022-12-13T12:22:26.861Z,5.37
2022-12-13T12:25:08.894Z,5.07
2022-12-13T12:27:48.222Z,5.13
2022-12-13T12:30:22.872Z,5.17
2022-12-13T12:33:03.309Z,5.33
2022-12-13T12:35:58.772Z,5.50
2022-12-13T12:39:02.166Z,5.33
2022-12-13T12:41:45.088Z,5.00
2022-12-13T12:44:30.474Z,5.47
2022-12-13T12:47:38.244Z,6.20
2022-12-13T12:50:32.756Z,12.70
2022-12-13T12:53:10.517Z,11.43
2022-12-13T12:55:49.889Z,6.63
2022-12-13T12:58:29.040Z,6.43
2022-12-13T13:01:11.593Z,5.97
2022-12-13T13:03:43.386Z,8.00
2022-12-13T13:06:16.976Z,11.00
2022-12-13T13:08:55.007Z,7.10
2022-12-13T13:11:26.506Z,6.77
2022-12-13T13:14:08.352Z,6.50
2022-12-13T13:16:40.509Z,6.90
2022-12-13T13:19:47.891Z,7.37
2022-12-13T13:22:32.674Z,8.00
2022-12-13T13:25:25.966Z,7.20
2022-12-13T13:28:04.271Z,7.67
2022-12-13T13:30:36.448Z,5.83
2022-12-13T13:33:43.122Z,5.57
2022-12-13T13:36:52.771Z,5.97
2022-12-13T13:39:39.958Z,6.33
2022-12-13T13:42:18.965Z,5.93
2022-12-13T13:45:04.670Z,5.77
2022-12-13T13:47:42.713Z,5.53
2022-12-13T13:50:47.893Z,5.80
2022-12-13T13:53:50.893Z,5.27
2022-12-13T13:56:56.168Z,5.30
2022-12-13T14:00:12.006Z,6.37
2022-12-13T14:03:33.298Z,6.50
2022-12-13T14:06:42.941Z,5.77
2022-12-13T14:09:48.215Z,5.10
2022-12-13T14:13:14.781Z,6.27
2022-12-13T14:16:21.272Z,17.83
2022-12-13T14:19:25.822Z,6.77
2022-12-13T14:22:07.473Z,6.30
2022-12-13T14:24:51.645Z,5.60
2022-12-13T14:27:34.571Z,5.40
2022-12-13T14:30:09.620Z,5.07
2022-12-13T14:32:52.481Z,5.30
2022-12-13T14:35:27.207Z,4.93
2022-12-13T14:38:01.385Z,4.70
2022-12-13T14:40:33.181Z,5.50
2022-12-13T14:43:04.877Z,5.30
2022-12-13T14:45:36.784Z,5.67
2022-12-13T14:48:10.059Z,5.40
2022-12-13T14:50:49.251Z,6.20
2022-12-13T14:53:26.816Z,5.80
2022-12-13T14:56:07.607Z,5.87
2022-12-13T14:58:38.080Z,5.50
2022-12-13T15:01:07.676Z,5.30
2022-12-13T15:03:36.714Z,4.83
2022-12-13T15:06:05.874Z,6.37
2022-12-13T15:08:39.205Z,5.03
2022-12-13T15:11:11.024Z,5.43
2022-12-13T15:13:43.666Z,8.57
2022-12-13T15:16:19.599Z,8.70
2022-12-13T15:19:10.748Z,8.50
2022-12-13T15:21:41.147Z,12.47
2022-12-13T15:24:14.442Z,9.77
2022-12-13T15:26:45.303Z,7.13
2022-12-13T15:29:20.698Z,7.47
2022-12-13T15:31:50.255Z,6.30
2022-12-13T15:34:29.358Z,7.47
2022-12-13T15:37:01.045Z,7.10
2022-12-13T15:39:32.112Z,6.93
2022-12-13T15:42:01.197Z,7.97
2022-12-13T15:44:33.885Z,8.00
2022-12-13T15:47:06.164Z,8.10
2022-12-13T15:49:38.399Z,8.57
2022-12-13T15:52:26.925Z,7.53
2022-12-13T15:54:58.526Z,6.60
2022-12-13T15:57:29.257Z,7.60
2022-12-13T16:00:17.225Z,6.80
2022-12-13T16:02:52.870Z,6.77
2022-12-13T16:05:28.969Z,6.90
2022-12-13T16:08:00.366Z,6.80
2022-12-13T16:10:48.471Z,12.93
2022-12-13T16:13:27.394Z,33.40
2022-12-13T16:16:09.299Z,17.90
2022-12-13T16:18:47.502Z,10.70
2022-12-13T16:21:16.305Z,9.30
2022-12-13T16:23:48.508Z,8.63
2022-12-13T16:26:24.308Z,8.90
2022-12-13T16:28:53.235Z,9.03
2022-12-13T16:31:27.917Z,8.50
2022-12-13T16:33:56.843Z,8.20
2022-12-13T16:36:26.423Z,9.23
2022-12-13T16:38:55.118Z,9.07
2022-12-13T16:41:24.321Z,8.70
2022-12-13T16:43:56.265Z,8.03
2022-12-13T16:47:13.326Z,8.03
2022-12-13T16:49:21.669Z,8.77
2022-12-13T16:51:50.971Z,7.97
2022-12-13T16:54:20.953Z,8.40
2022-12-13T16:56:50.292Z,9.10
2022-12-13T16:59:20.510Z,9.67
2022-12-13T17:01:51.331Z,10.50
2022-12-13T17:04:22.464Z,8.77
2022-12-13T17:06:54.946Z,10.23
2022-12-13T17:09:25.419Z,16.43
2022-12-13T17:11:54.426Z,13.33
2022-12-13T17:14:23.237Z,14.53
2022-12-13T17:16:53.208Z,13.20
2022-12-13T17:19:22.403Z,12.23
2022-12-13T17:21:51.701Z,10.93
2022-12-13T17:24:20.577Z,9.73
2022-12-13T17:26:53.851Z,8.97
2022-12-13T17:29:23.235Z,8.90
2022-12-13T17:31:53.944Z,10.03
2022-12-13T17:34:22.742Z,9.80
2022-12-13T17:36:51.790Z,10.97
2022-12-13T17:39:21.882Z,13.40
2022-12-13T17:41:55.412Z,13.33
2022-12-13T17:44:25.599Z,11.33
2022-12-13T17:46:56.356Z,12.90
2022-12-13T17:49:25.700Z,13.00
2022-12-13T17:51:55.422Z,13.00
2022-12-13T17:54:25.364Z,12.80
2022-12-13T17:56:54.547Z,12.87
2022-12-13T17:59:23.589Z,9.67
2022-12-13T18:01:52.561Z,11.23
2022-12-13T18:04:23.268Z,10.90
2022-12-13T18:06:52.210Z,9.83
2022-12-13T18:09:20.710Z,9.27
2022-12-13T18:11:49.237Z,10.57
2022-12-13T18:14:17.802Z,11.00
2022-12-13T18:16:46.802Z,13.27
2022-12-13T18:19:15.873Z,12.07
2022-12-13T18:21:45.756Z,12.70
2022-12-13T18:24:15.018Z,12.77
2022-12-13T18:26:43.559Z,13.33
2022-12-13T18:29:12.492Z,13.17
2022-12-13T18:31:41.488Z,13.67
2022-12-13T18:34:10.150Z,15.33
2022-12-13T18:36:39.572Z,15.03
2022-12-13T18:39:10.013Z,17.73
2022-12-13T18:41:40.154Z,15.40
2022-12-13T18:44:09.649Z,15.90
2022-12-13T18:46:43.360Z,16.30
2022-12-13T18:49:14.537Z,17.20
2022-12-13T18:51:43.170Z,17.37
2022-12-13T18:54:14.303Z,15.80
2022-12-13T18:56:42.936Z,16.57
2022-12-13T18:59:12.480Z,14.57
2022-12-13T19:01:41.547Z,16.00
2022-12-13T19:04:11.181Z,16.10
2022-12-13T19:06:40.081Z,15.70
2022-12-13T19:09:09.042Z,15.20
2022-12-13T19:11:39.416Z,15.57
2022-12-13T19:14:08.415Z,16.60
2022-12-13T19:16:37.220Z,16.07
2022-12-13T19:19:06.991Z,16.50
2022-12-13T19:21:35.907Z,36.90
2022-12-13T19:24:05.518Z,39.50
2022-12-13T19:26:34.645Z,26.07
2022-12-13T19:29:05.418Z,23.23
2022-12-13T19:31:34.480Z,18.47
2022-12-13T19:34:03.854Z,19.53
2022-12-13T19:36:33.150Z,21.67
2022-12-13T19:39:01.780Z,20.47
2022-12-13T19:41:32.259Z,17.70
2022-12-13T19:44:04.503Z,19.10
2022-12-13T19:46:35.001Z,21.43
2022-12-13T19:49:03.750Z,21.83
2022-12-13T19:51:39.024Z,16.03
2022-12-13T19:54:08.264Z,16.47
2022-12-13T19:56:36.766Z,18.43
2022-12-13T19:59:05.329Z,17.53
2022-12-13T20:01:35.322Z,18.13
2022-12-13T20:04:04.036Z,15.93
2022-12-13T20:06:32.594Z,16.57
2022-12-13T20:09:01.466Z,16.13
2022-12-13T20:11:31.408Z,16.40
2022-12-13T20:13:59.985Z,17.33
2022-12-13T20:16:28.634Z,16.57
2022-12-13T20:19:00.250Z,17.57
2022-12-13T20:21:29.945Z,16.93
2022-12-13T20:23:58.778Z,16.60
2022-12-13T20:26:30.009Z,16.37
2022-12-13T20:28:59.905Z,17.10
2022-12-13T20:31:30.976Z,16.93
2022-12-13T20:34:03.067Z,17.83
2022-12-13T20:36:32.861Z,16.97
2022-12-13T20:39:02.907Z,21.17
2022-12-13T20:41:33.796Z,20.10
2022-12-13T20:44:04.317Z,19.67
2022-12-13T20:46:33.161Z,33.33
2022-12-13T20:49:06.335Z,28.40
2022-12-13T20:51:36.570Z,24.20
2022-12-13T20:54:05.738Z,20.60
2022-12-13T20:56:36.903Z,20.47
2022-12-13T20:59:07.282Z,19.57
2022-12-13T21:01:37.968Z,21.67
2022-12-13T21:04:09.993Z,22.03
2022-12-13T21:06:40.737Z,28.63
2022-12-13T21:09:11.033Z,63.40
2022-12-13T21:11:41.944Z,87.70
2022-12-13T21:14:20.421Z,63.40
2022-12-13T21:16:52.121Z,40.43
2022-12-13T21:19:23.733Z,29.87
2022-12-13T21:21:53.225Z,25.63
2022-12-13T21:24:23.486Z,28.40
2022-12-13T21:26:52.263Z,29.23
2022-12-13T21:29:20.975Z,30.67
2022-12-13T21:31:51.038Z,34.53
2022-12-13T21:34:22.170Z,33.23
2022-12-13T21:36:53.103Z,34.53
2022-12-13T21:39:24.111Z,34.70
2022-12-13T21:41:53.996Z,33.50
2022-12-13T21:44:22.891Z,31.43
2022-12-13T21:49:42.032Z,30.63
2022-12-13T21:52:18.079Z,30.57
2022-12-13T21:54:46.647Z,29.70
2022-12-13T21:57:32.788Z,29.93
2022-12-13T22:00:01.538Z,31.50
2022-12-13T22:02:30.306Z,29.43
2022-12-13T22:05:01.346Z,28.47
2022-12-13T22:07:31.852Z,31.63
2022-12-13T22:10:03.679Z,31.13
2022-12-13T22:12:35.792Z,29.30
2022-12-13T22:15:06.535Z,29.47
2022-12-13T22:17:36.415Z,28.90
2022-12-13T22:20:08.994Z,32.17
2022-12-13T22:22:40.084Z,30.57
2022-12-13T22:25:09.993Z,29.17
2022-12-13T22:27:38.550Z,28.87
2022-12-13T22:30:08.446Z,28.07
2022-12-13T22:32:36.983Z,29.33
2022-12-13T22:35:07.867Z,27.63
2022-12-13T22:37:36.418Z,27.90
2022-12-13T22:40:06.808Z,29.43
2022-12-13T22:42:35.470Z,29.13
2022-12-13T22:45:04.156Z,28.30
2022-12-13T22:47:32.709Z,27.53
2022-12-13T22:50:01.215Z,28.70
2022-12-13T22:52:34.012Z,27.13
2022-12-13T22:55:03.868Z,26.80
2022-12-13T22:57:32.859Z,25.83
2022-12-13T23:00:01.314Z,25.73
2022-12-13T23:02:29.992Z,25.33
2022-12-13T23:04:58.573Z,26.57
2022-12-13T23:07:27.071Z,26.50
2022-12-13T23:09:56.982Z,26.60
2022-12-13T23:12:42.942Z,25.10
2022-12-13T23:15:12.395Z,26.37
2022-12-13T23:17:41.217Z,27.17
2022-12-13T23:20:11.385Z,27.67
2022-12-13T23:22:40.348Z,26.37
2022-12-13T23:25:11.515Z,27.07
2022-12-13T23:27:40.338Z,25.00
2022-12-13T23:30:10.674Z,26.30
2022-12-13T23:32:39.521Z,26.37
2022-12-13T23:35:10.309Z,27.73
2022-12-13T23:37:39.217Z,28.53
2022-12-13T23:40:12.095Z,29.53
2022-12-13T23:42:40.961Z,28.07
2022-12-13T23:45:10.602Z,29.47
2022-12-13T23:47:39.539Z,30.97
2022-12-13T23:50:09.720Z,31.70
2022-12-13T23:52:38.819Z,33.43
2022-12-13T23:55:08.136Z,33.17
2022-12-13T23:57:38.509Z,32.97
